Time;durP1;ratioP1;P1;durP2;ratioP2;P2;SDS_P1;SDS_P2;PMS_P1;PMS_P2;Temp;Humidity;BMP_temperature;BMP_pressure;BME280_temperature;BME280_humidity;BME280_pressure;Samples;Min_cycle;Max_cycle;Signal;HPM_P1;HPM_P2
2022/03/22 00:00:58;;;;;;;;;;;;;;;17.91;53.80;100337.75;2083113;28;20080;-54
2022/03/22 00:01:59;;;;;;;2.10;1.38;;;;;;;17.95;53.88;100338.31;2083633;28;20022;-54
2022/03/22 00:03:01;;;;;;;;;;;;;;;17.88;54.05;100339.94;2087263;28;21051;-50
2022/03/22 00:04:02;;;;;;;1.30;1.15;;;;;;;17.93;54.05;100346.50;2085617;28;20047;-51
2022/03/22 00:05:06;;;;;;;2.08;1.70;;;;;;;17.99;53.79;100345.88;2084754;28;20778;-54
2022/03/22 00:06:08;;;;;;;2.97;1.77;;;;;;;17.99;53.72;100345.88;2088412;28;20814;-54
2022/03/22 00:07:09;;;;;;;3.08;1.33;;;;;;;18.01;53.57;100343.88;2087348;28;20055;-51
2022/03/22 00:08:11;;;;;;;;;;;;;;;17.90;53.96;100346.81;2087130;28;20055;-54
2022/03/22 00:09:12;;;;;;;2.90;1.30;;;;;;;17.96;53.89;100353.41;2087729;28;19932;-52
2022/03/22 00:10:14;;;;;;;2.78;1.45;;;;;;;17.95;53.80;100347.19;2087504;28;20048;-54
2022/03/22 00:11:16;;;;;;;4.10;1.30;;;;;;;17.99;53.77;100355.78;2085511;28;20040;-52
2022/03/22 00:12:17;;;;;;;3.08;1.50;;;;;;;17.98;53.49;100354.94;2085590;28;20059;-54
2022/03/22 00:13:19;;;;;;;;;;;;;;;17.88;53.98;100354.19;2086073;28;20056;-53
2022/03/22 00:14:20;;;;;;;;;;;;;;;17.78;54.22;100356.13;2088885;28;20963;-54
2022/03/22 00:15:21;;;;;;;3.55;1.65;;;;;;;17.85;53.95;100349.97;2086598;28;20015;-55
2022/03/22 00:16:22;;;;;;;2.25;1.45;;;;;;;17.91;53.80;100353.88;2084107;28;20807;-52
2022/03/22 00:17:24;;;;;;;;;;;;;;;17.84;53.96;100352.84;2083396;28;20051;-55
2022/03/22 00:18:26;;;;;;;1.98;1.13;;;;;;;17.88;53.75;100354.19;2083949;28;20519;-53
2022/03/22 00:19:27;;;;;;;1.52;1.20;;;;;;;17.92;53.88;100352.91;2084495;28;20918;-55
2022/03/22 00:20:30;;;;;;;;;;;;;;;17.83;53.89;100354.69;2084895;28;20052;-52
2022/03/22 00:21:32;;;;;;;3.90;2.08;;;;;;;17.88;53.91;100353.34;2085107;28;20015;-54
2022/03/22 00:22:35;;;;;;;2.72;1.40;;;;;;;17.92;53.63;100360.09;2082229;28;20717;-53
2022/03/22 00:23:35;;;;;;;3.85;1.45;;;;;;;17.93;53.54;100356.41;2084632;28;20395;-55
2022/03/22 00:24:38;;;;;;;;;;;;;;;17.81;53.99;100358.50;2085259;28;20058;-51
2022/03/22 00:25:39;;;;;;;1.58;1.30;;;;;;;17.86;53.95;100350.84;2088785;28;19984;-53
2022/03/22 00:26:40;;;;;;;;;;;;;;;17.78;54.02;100358.81;2084441;28;20041;-53
2022/03/22 00:27:55;;;;;;;1.70;1.48;;;;;;;17.84;53.86;100352.84;2088701;28;20041;-52
2022/03/22 00:28:56;;;;;;;2.08;1.52;;;;;;;17.85;53.80;100346.44;2083894;28;20047;-53
2022/03/22 00:29:58;;;;;;;;;;;;;;;17.76;54.18;100352.75;2079408;28;20055;-51
2022/03/22 00:30:59;;;;;;;2.53;1.55;;;;;;;17.80;53.89;100346.94;2086510;28;19963;-52
2022/03/22 00:32:00;;;;;;;;;;;;;;;17.73;54.13;100353.88;2088086;28;20048;-51
2022/03/22 00:33:02;;;;;;;;;;;;;;;17.67;54.18;100351.84;2088138;28;19927;-52
2022/03/22 00:34:04;;;;;;;1.90;1.25;;;;;;;17.76;54.11;100360.78;2086771;28;21122;-54
2022/03/22 00:35:05;;;;;;;1.83;1.33;;;;;;;17.81;53.93;100353.16;2085612;28;20139;-51
2022/03/22 00:36:10;;;;;;;2.38;1.45;;;;;;;17.84;53.90;100363.56;2088674;28;20051;-54
2022/03/22 00:37:14;;;;;;;2.25;1.20;;;;;;;17.86;53.66;100362.41;2086314;28;20048;-51
2022/03/22 00:38:18;;;;;;;3.22;1.95;;;;;;;17.85;53.72;100360.72;2087518;28;20072;-51
2022/03/22 00:39:19;;;;;;;3.45;1.35;;;;;;;17.85;53.62;100357.19;2087785;28;20052;-54
2022/03/22 00:40:21;;;;;;;;;;;;;;;17.74;54.07;100357.41;2085302;28;20044;-56
2022/03/22 00:41:22;;;;;;;1.77;1.55;;;;;;;17.78;53.85;100358.81;2085020;28;20499;-54
2022/03/22 00:42:23;;;;;;;;;;;;;;;17.67;53.97;100364.41;2088140;28;20056;-54
2022/03/22 00:43:24;;;;;;;4.25;1.80;;;;;;;17.72;54.03;100364.75;2084718;28;19932;-52
2022/03/22 00:44:26;;;;;;;;;;;;;;;17.63;54.13;100362.03;2088728;28;20056;-56
2022/03/22 00:45:27;;;;;;;;;;;;;;;17.58;54.11;100360.81;2088845;28;20393;-53
2022/03/22 00:46:29;;;;;;;;;;;;;;;17.55;54.36;100361.97;2088689;28;20420;-56
2022/03/22 00:47:30;;;;;;;1.77;1.25;;;;;;;17.63;54.22;100364.72;2086936;28;19928;-53
2022/03/22 00:48:32;;;;;;;;;;;;;;;17.58;54.22;100364.34;2087458;28;20730;-54
2022/03/22 00:49:33;;;;;;;1.60;1.38;;;;;;;17.66;54.02;100360.88;2086991;28;19932;-53
2022/03/22 00:50:37;;;;;;;2.55;1.42;;;;;;;17.70;53.85;100364.09;2088214;28;20065;-55
2022/03/22 00:51:39;;;;;;;1.60;1.50;;;;;;;17.74;53.70;100362.78;2086091;28;20047;-54
2022/03/22 00:52:42;;;;;;;1.67;1.20;;;;;;;17.74;53.79;100368.16;2084763;28;20055;-54
2022/03/22 00:53:45;;;;;;;1.42;1.20;;;;;;;17.74;53.75;100362.78;2088679;28;20100;-55
2022/03/22 00:54:47;;;;;;;2.63;1.30;;;;;;;17.73;53.82;100361.94;2086187;28;20056;-54
2022/03/22 00:55:48;;;;;;;1.75;1.58;;;;;;;17.74;53.63;100360.09;2087345;28;20076;-54
2022/03/22 00:56:54;;;;;;;2.70;1.42;;;;;;;17.75;53.64;100364.47;2083172;28;21522;-54
2022/03/22 00:57:56;;;;;;;1.83;1.48;;;;;;;17.74;53.72;100352.88;2084447;28;20060;-55
2022/03/22 01:00:15;;;;;;;2.45;1.27;;;;;;;17.69;53.71;100348.97;2079454;28;20047;-53
2022/03/22 01:01:17;;;;;;;3.22;1.42;;;;;;;17.69;53.84;100352.53;2081606;28;20060;-55
2022/03/22 01:02:18;;;;;;;1.13;0.95;;;;;;;17.69;53.73;100346.28;2086439;28;20161;-54
2022/03/22 01:03:19;;;;;;;;;;;;;;;17.59;54.14;100354.44;2085913;28;20056;-54
2022/03/22 01:04:20;;;;;;;;;;;;;;;17.51;54.35;100357.06;2087875;28;19996;-52
2022/03/22 01:05:24;;;;;;;2.47;1.40;;;;;;;17.57;54.03;100354.59;2087529;28;20605;-54
2022/03/22 01:06:25;;;;;;;2.13;1.05;;;;;;;17.58;53.93;100358.97;2086449;28;20049;-53
2022/03/22 01:07:29;;;;;;;;;;;;;;;17.51;54.05;100349.00;2087936;28;20113;-55
2022/03/22 01:08:30;;;;;;;3.00;1.50;;;;;;;17.56;54.14;100352.09;2087070;28;20385;-54
2022/03/22 01:09:31;;;;;;;2.30;1.55;;;;;;;17.60;53.99;100350.75;2074550;28;20495;-57
2022/03/22 01:10:34;;;;;;;;;;;;;;;17.50;54.05;100358.91;2085557;28;22223;-56
2022/03/22 01:11:36;;;;;;;2.65;1.65;;;;;;;17.55;54.05;100347.69;2086947;28;19929;-57
2022/03/22 01:12:38;;;;;;;3.65;1.88;;;;;;;17.58;53.88;100348.25;2085105;28;20076;-58
2022/03/22 01:13:39;;;;;;;1.92;1.60;;;;;;;17.61;53.83;100355.16;2084070;28;20744;-53
2022/03/22 01:14:41;;;;;;;;;;;;;;;17.49;54.12;100342.97;2086458;28;20048;-58
2022/03/22 01:15:43;;;;;;;1.58;1.17;;;;;;;17.51;54.08;100344.50;2083576;28;20171;-55
2022/03/22 01:16:43;;;;;;;2.05;1.23;;;;;;;17.56;54.02;100350.22;2086886;28;20040;-59
2022/03/22 01:17:45;;;;;;;;;;;;;;;17.46;54.13;100343.25;2083400;28;20052;-54
2022/03/22 01:18:46;;;;;;;1.40;1.10;;;;;;;17.50;54.02;100345.50;2076436;28;19966;-54
2022/03/22 01:19:48;;;;;;;;;;;;;;;17.41;54.27;100341.03;2077706;28;20538;-59
2022/03/22 01:20:49;;;;;;;;;;;;;;;17.36;54.44;100344.19;2088435;28;19935;-55
2022/03/22 01:21:52;;;;;;;1.35;1.25;;;;;;;17.42;54.32;100343.56;2084725;28;19925;-57
2022/03/22 01:22:55;;;;;;;1.95;1.30;;;;;;;17.49;54.07;100343.78;2085845;28;21364;-56
2022/03/22 01:23:58;;;;;;;1.80;1.65;;;;;;;17.51;53.99;100346.34;2087940;28;20142;-56
2022/03/22 01:25:00;;;;;;;2.00;1.48;;;;;;;17.53;53.89;100347.88;2085890;28;20044;-54
2022/03/22 01:26:02;;;;;;;3.15;1.40;;;;;;;17.54;53.81;100341.50;2087198;28;20064;-57
2022/03/22 01:27:04;;;;;;;3.55;1.35;;;;;;;17.54;53.93;100341.50;2085046;28;20113;-56
2022/03/22 01:28:08;;;;;;;2.53;1.38;;;;;;;17.55;53.86;100342.31;2083315;28;20057;-58
2022/03/22 01:29:11;;;;;;;3.38;1.20;;;;;;;17.52;53.89;100340.78;2082792;28;20865;-55
2022/03/22 01:30:15;;;;;;;1.52;1.30;;;;;;;17.52;53.82;100338.13;2081806;28;20053;-59
2022/03/22 01:31:16;;;;;;;1.50;1.10;;;;;;;17.51;53.77;100341.81;2085106;28;20750;-56
2022/03/22 01:32:17;;;;;;;;;;;;;;;17.40;54.03;100342.88;2081858;28;20052;-57
2022/03/22 01:33:20;;;;;;;1.90;1.45;;;;;;;17.42;53.96;100340.91;2082715;28;19976;-54
2022/03/22 01:34:21;;;;;;;1.15;1.08;;;;;;;17.45;53.83;100333.53;2086486;28;20045;-50
2022/03/22 01:35:22;;;;;;;;;;;;;;;17.35;54.24;100341.66;2088649;28;20063;-52
2022/03/22 01:36:23;;;;;;;2.17;1.50;;;;;;;17.39;54.14;100338.53;2088818;28;19986;-53
2022/03/22 01:37:25;;;;;;;;;;;;;;;17.31;54.34;100334.94;2086622;28;20048;-53
2022/03/22 01:38:28;;;;;;;1.45;1.30;;;;;;;17.35;54.08;100337.13;2086494;28;19981;-57
2022/03/22 01:39:29;;;;;;;1.95;1.40;;;;;;;17.40;54.07;100347.41;2086614;28;20045;-59
2022/03/22 01:40:32;;;;;;;;;;;;;;;17.32;54.29;100341.97;2086015;28;20044;-56
2022/03/22 01:41:33;;;;;;;1.40;1.23;;;;;;;17.35;54.28;100337.13;2087482;28;19985;-56
2022/03/22 01:42:36;;;;;;;1.50;1.15;;;;;;;17.39;54.12;100343.06;2087132;28;20049;-51
2022/03/22 01:43:36;;;;;;;2.38;1.30;;;;;;;17.40;54.03;100339.38;2085641;28;20045;-56
2022/03/22 01:44:38;;;;;;;;;;;;;;;17.30;54.37;100338.59;2086761;28;20051;-53
2022/03/22 01:45:39;;;;;;;1.85;1.48;;;;;;;17.33;54.32;100338.31;2087681;28;19926;-56
2022/03/22 01:46:41;;;;;;;2.20;1.67;;;;;;;17.37;54.11;100335.16;2084677;28;20072;-54
2022/03/22 01:47:44;;;;;;;1.50;1.13;;;;;;;17.41;53.85;100341.03;2084336;28;20131;-55
2022/03/22 01:48:48;;;;;;;3.25;1.45;;;;;;;17.41;54.03;100335.66;2085434;28;20146;-54
2022/03/22 01:49:50;;;;;;;2.05;1.33;;;;;;;17.40;53.88;100336.69;2087703;28;20053;-57
2022/03/22 01:50:52;;;;;;;1.58;1.23;;;;;;;17.39;54.02;100341.22;2081278;28;20124;-58
2022/03/22 01:51:54;;;;;;;1.38;1.23;;;;;;;17.40;53.77;100334.00;2090455;28;20165;-52
2022/03/22 01:52:58;;;;;;;1.45;1.30;;;;;;;17.38;53.86;100342.22;2089240;28;20147;-56
2022/03/22 01:54:02;;;;;;;3.25;1.45;;;;;;;17.38;53.94;100335.97;2087088;28;20052;-52
2022/03/22 01:55:03;;;;;;;3.05;1.20;;;;;;;17.37;53.88;100339.66;2087053;28;20056;-56
2022/03/22 01:56:05;;;;;;;1.90;1.15;;;;;;;17.37;53.91;100332.47;2088083;28;20064;-53
2022/03/22 01:57:07;;;;;;;1.50;1.00;;;;;;;17.35;53.84;100331.78;2086863;28;20061;-51
2022/03/22 01:58:08;;;;;;;3.25;1.70;;;;;;;17.35;53.83;100334.44;2086733;28;20064;-52
2022/03/22 01:59:10;;;;;;;;;;;;;;;17.24;54.15;100328.47;2087238;28;20044;-55
2022/03/22 02:00:13;;;;;;;3.38;1.02;;;;;;;17.26;54.25;100331.88;2086598;28;19925;-53
2022/03/22 02:06:33;;;;;;;2.13;1.30;;;;;;;17.25;54.21;100320.31;2087550;28;20032;-54
2022/03/22 02:07:35;;;;;;;2.15;1.60;;;;;;;17.26;54.00;100327.34;2086651;28;20044;-56
2022/03/22 02:08:36;;;;;;;2.63;1.50;;;;;;;17.28;53.88;100327.19;2086345;28;20052;-57
2022/03/22 02:09:39;;;;;;;;;;;;;;;17.16;54.16;100323.88;2086836;28;20120;-53
2022/03/22 02:10:40;;;;;;;3.00;1.27;;;;;;;17.18;54.23;100322.72;2087439;28;20301;-54
2022/03/22 02:11:42;;;;;;;;;;;;;;;17.11;54.46;100318.16;2085289;28;20123;-57
2022/03/22 02:12:44;;;;;;;1.95;1.00;;;;;;;17.15;54.56;100317.69;2085042;28;19924;-54
2022/03/22 02:13:46;;;;;;;1.23;1.13;;;;;;;17.19;54.25;100324.44;2082874;28;20127;-51
2022/03/22 02:14:46;;;;;;;1.85;1.35;;;;;;;17.20;54.10;100323.44;2086379;28;20147;-55
2022/03/22 02:15:50;;;;;;;;;;;;;;;17.11;54.30;100318.16;2087120;28;20106;-55
2022/03/22 02:16:51;;;;;;;1.45;1.30;;;;;;;17.13;54.21;100317.00;2085483;28;19920;-57
2022/03/22 02:17:53;;;;;;;;;;;;;;;17.05;54.45;100327.66;2082825;28;20647;-57
2022/03/22 02:18:53;;;;;;;;;;;;;;;16.97;54.61;100322.22;2087299;28;19970;-54
2022/03/22 02:19:57;;;;;;;1.70;1.30;;;;;;;17.05;54.46;100322.28;2088744;28;19925;-57
2022/03/22 02:21:00;;;;;;;1.90;1.73;;;;;;;17.11;54.33;100318.16;2090002;28;21003;-51
2022/03/22 02:22:06;;;;;;;1.50;1.40;;;;;;;17.13;54.26;100316.16;2089671;28;20121;-59
2022/03/22 02:23:14;;;;;;;3.17;1.40;;;;;;;17.14;54.20;100318.69;2087412;28;20097;-53
2022/03/22 02:24:18;;;;;;;1.95;1.33;;;;;;;17.15;54.10;100315.00;2086976;28;20094;-59
2022/03/22 02:25:19;;;;;;;1.85;1.02;;;;;;;17.16;54.06;100313.16;2087589;28;20736;-58
2022/03/22 02:26:22;;;;;;;2.83;1.48;;;;;;;17.17;54.09;100314.84;2087241;28;20048;-53
2022/03/22 02:27:29;;;;;;;1.05;0.95;;;;;;;17.15;54.19;100309.63;2087518;28;20466;-53
2022/03/22 02:28:31;;;;;;;2.25;1.55;;;;;;;17.15;54.12;100314.16;2085841;28;20771;-54
2022/03/22 02:29:32;;;;;;;3.60;1.33;;;;;;;17.17;54.10;100312.19;2086902;28;20052;-59
2022/03/22 02:30:33;;;;;;;;;;;;;;;17.04;54.38;100311.72;2090610;28;20040;-58
2022/03/22 02:31:34;;;;;;;1.52;1.42;;;;;;;17.05;54.35;100305.34;2091464;28;20484;-58
2022/03/22 02:32:36;;;;;;;1.73;1.42;;;;;;;17.08;54.32;100313.94;2089046;28;20068;-58
2022/03/22 02:33:40;;;;;;;2.25;1.55;;;;;;;17.11;54.14;100310.13;2086309;28;20052;-53
2022/03/22 02:34:42;;;;;;;1.77;1.40;;;;;;;17.11;54.32;100310.13;2088335;28;20476;-55
2022/03/22 02:35:43;;;;;;;1.70;1.27;;;;;;;17.10;54.13;100311.94;2087985;28;20124;-56
2022/03/22 02:36:44;;;;;;;;;;;;;;;16.99;54.35;100309.47;2091935;28;20532;-53
2022/03/22 02:37:46;;;;;;;;;;;;;;;16.91;54.57;100312.06;2094049;28;19925;-56
2022/03/22 02:38:48;;;;;;;1.15;1.05;;;;;;;16.98;54.57;100314.00;2091246;28;19996;-53
2022/03/22 02:39:50;;;;;;;1.67;1.35;;;;;;;17.04;54.40;100311.72;2095159;28;20052;-56
2022/03/22 02:40:52;;;;;;;1.10;0.90;;;;;;;17.05;54.27;100311.56;2091976;28;20040;-52
2022/03/22 02:41:53;;;;;;;1.83;1.30;;;;;;;17.07;54.40;100312.25;2093126;28;20096;-55
2022/03/22 02:42:55;;;;;;;;;;;;;;;16.96;54.47;100309.78;2091095;28;20544;-53
2022/03/22 02:43:57;;;;;;;2.95;1.20;;;;;;;16.98;54.44;100308.63;2092317;28;20394;-54
2022/03/22 02:44:58;;;;;;;1.52;1.20;;;;;;;17.01;54.50;100310.19;2089180;28;20041;-56
2022/03/22 02:45:59;;;;;;;2.50;1.05;;;;;;;17.02;54.40;100319.91;2090661;28;20541;-57
2022/03/22 02:47:01;;;;;;;;;;;;;;;16.92;54.46;100308.41;2089242;28;20561;-54
2022/03/22 02:48:02;;;;;;;2.13;1.52;;;;;;;16.96;54.55;100315.13;2090429;28;19920;-55
2022/03/22 02:49:03;;;;;;;;;;;;;;;16.87;54.77;100311.53;2094009;28;20128;-52
2022/03/22 02:50:05;;;;;;;;;;;;;;;16.81;54.88;100308.63;2087261;28;20023;-51
2022/03/22 02:51:06;;;;;;;1.75;1.05;;;;;;;16.87;54.59;100310.69;2088775;28;20833;-54
2022/03/22 02:52:07;;;;;;;1.52;1.15;;;;;;;16.90;54.58;100307.72;2089909;28;20040;-54
2022/03/22 02:53:09;;;;;;;;;;;;;;;16.82;54.66;100310.31;2092090;28;20052;-49
2022/03/22 02:54:10;;;;;;;1.33;1.23;;;;;;;16.88;54.70;100307.88;2084642;28;19928;-52
2022/03/22 02:55:13;;;;;;;;;;;;;;;16.79;54.77;100311.44;2078849;28;20076;-51
2022/03/22 02:56:15;;;;;;;4.03;1.80;;;;;;;16.87;54.85;100308.03;2086673;28;19927;-51
2022/03/22 02:57:15;;;;;;;2.25;1.33;;;;;;;16.90;54.44;100310.41;2089512;28;20494;-51
2022/03/22 02:58:17;;;;;;;;;;;;;;;16.81;54.65;100306.78;2092424;28;20040;-53
2022/03/22 02:59:18;;;;;;;1.88;1.20;;;;;;;16.86;54.58;100307.19;2088162;28;19935;-52
2022/03/22 03:00:20;;;;;;;;;;;;;;;16.78;54.81;100308.94;2090045;28;20044;-53
2022/03/22 03:01:21;;;;;;;1.77;1.15;;;;;;;16.85;54.83;100304.66;2088871;28;20001;-54
2022/03/22 03:02:23;;;;;;;;;;;;;;;16.77;54.72;100305.41;2091462;28;20138;-54
2022/03/22 03:03:23;;;;;;;1.73;0.90;;;;;;;16.85;54.74;100307.31;2092064;28;20477;-53
2022/03/22 03:04:25;;;;;;;;;;;;;;;16.75;54.72;100302.84;2092490;28;20049;-51
2022/03/22 03:05:26;;;;;;;1.95;1.20;;;;;;;16.79;54.71;100302.56;2088217;28;20007;-51
2022/03/22 03:06:29;;;;;;;;;;;;;;;16.74;54.84;100303.84;2089516;28;20730;-53
2022/03/22 03:07:30;;;;;;;2.60;1.73;;;;;;;16.79;54.61;100311.44;2087279;28;19927;-54
2022/03/22 03:08:31;;;;;;;;;;;;;;;16.71;54.78;100304.13;2092387;28;20798;-51
2022/03/22 03:09:32;;;;;;;2.90;1.55;;;;;;;16.78;54.66;100303.56;2090948;28;19972;-52
2022/03/22 03:10:35;;;;;;;;;;;;;;;16.73;54.87;100299.47;2093597;28;20059;-53
2022/03/22 03:11:36;;;;;;;1.63;1.10;;;;;;;16.80;54.76;100305.13;2092552;28;20465;-52
2022/03/22 03:12:37;;;;;;;;;;;;;;;16.71;54.80;100304.13;2093197;28;20062;-52
2022/03/22 03:14:59;;;;;;;1.38;1.27;;;;;;;16.79;54.67;100302.56;2090811;28;20662;-53
2022/03/22 03:16:00;;;;;;;2.95;1.65;;;;;;;16.81;54.63;100305.94;2094827;28;20051;-54
2022/03/22 03:17:01;;;;;;;;;;;;;;;16.73;54.66;100307.50;2093960;28;20281;-54
2022/03/22 03:18:02;;;;;;;2.28;1.38;;;;;;;16.75;54.58;100299.34;2090780;28;20626;-54
2022/03/22 03:19:03;;;;;;;;;;;;;;;16.66;54.92;100313.59;2092289;28;20118;-54
2022/03/22 03:20:07;;;;;;;1.25;1.05;;;;;;;16.72;55.00;100305.00;2091547;28;19932;-54
2022/03/22 03:21:08;;;;;;;1.73;1.30;;;;;;;16.74;54.69;100301.16;2093648;28;20055;-53
2022/03/22 03:22:10;;;;;;;;;;;;;;;16.66;54.95;100300.22;2090089;28;20044;-55
2022/03/22 03:23:11;;;;;;;1.70;1.60;;;;;;;16.71;54.84;100308.66;2088079;28;19928;-52
2022/03/22 03:24:13;;;;;;;1.55;1.38;;;;;;;16.74;54.65;100303.84;2088381;28;20048;-56
2022/03/22 03:25:14;;;;;;;2.20;1.38;;;;;;;16.76;54.80;100303.69;2091088;28;20036;-53
2022/03/22 03:26:17;;;;;;;;;;;;;;;16.66;54.80;100309.13;2091180;28;20048;-52
2022/03/22 03:27:19;;;;;;;1.52;1.20;;;;;;;16.73;54.67;100304.00;2092103;28;19946;-52
2022/03/22 03:28:20;;;;;;;2.45;1.40;;;;;;;16.75;54.74;100296.66;2092492;28;20040;-53
2022/03/22 03:29:21;;;;;;;;;;;;;;;16.66;54.94;100308.25;2092903;28;20134;-53
2022/03/22 03:30:22;;;;;;;1.65;1.27;;;;;;;16.68;54.83;100299.06;2092577;28;20015;-57
2022/03/22 03:31:25;;;;;;;;;;;;;;;16.59;55.09;100307.19;2091368;28;20067;-55
2022/03/22 03:32:25;;;;;;;2.00;1.20;;;;;;;16.63;54.92;100306.75;2089803;28;19920;-54
2022/03/22 03:33:28;;;;;;;;;;;;;;;16.58;54.94;100311.69;2094617;28;20068;-52
2022/03/22 03:34:28;;;;;;;1.80;1.15;;;;;;;16.63;54.72;100309.41;2094425;28;19951;-54
2022/03/22 03:35:30;;;;;;;;;;;;;;;16.58;55.08;100300.16;2093980;28;20075;-53
2022/03/22 03:36:31;;;;;;;3.33;1.73;;;;;;;16.62;55.02;100310.41;2090126;28;19924;-54
2022/03/22 03:37:34;;;;;;;;;;;;;;;16.56;55.03;100308.31;2090966;28;20735;-52
2022/03/22 03:38:41;;;;;;;1.35;1.25;;;;;;;16.60;54.88;100304.34;2091353;28;19920;-54
2022/03/22 03:39:42;;;;;;;2.63;1.58;;;;;;;16.65;54.85;100309.25;2090223;28;20844;-54
2022/03/22 03:42:15;;;;;;;1.30;1.00;;;;;;;16.59;54.78;100313.38;2047140;28;19922;-57
2022/03/22 03:43:16;;;;;;;1.58;1.08;;;;;;;16.61;54.73;100306.03;2047684;28;20049;-56
2022/03/22 03:47:07;;;;;;;2.28;1.60;;;;;;;16.60;54.86;100298.97;2077149;28;20045;-58
2022/03/22 03:48:07;;;;;;;2.85;1.48;;;;;;;16.62;54.74;100302.34;2087225;28;20060;-56
2022/03/22 03:49:09;;;;;;;;;;;;;;;16.52;55.21;100293.56;2092929;28;20048;-55
2022/03/22 03:50:10;;;;;;;;;;;;;;;16.44;55.09;100299.66;2094611;28;19924;-58
2022/03/22 03:51:12;;;;;;;2.13;1.20;;;;;;;16.50;55.09;100298.22;2090506;28;20374;-59
2022/03/22 03:52:13;;;;;;;2.05;1.08;;;;;;;16.57;54.96;100301.13;2090419;28;20374;-54
2022/03/22 03:53:15;;;;;;;2.08;1.58;;;;;;;16.59;54.80;100302.66;2090433;28;20388;-55
2022/03/22 03:54:16;;;;;;;1.48;0.98;;;;;;;16.62;54.62;100304.19;2088936;28;20613;-58
2022/03/22 03:55:17;;;;;;;;;;;;;;;16.51;54.97;100299.88;2093542;28;20059;-56
2022/03/22 03:56:18;;;;;;;1.33;0.98;;;;;;;16.56;54.94;100304.81;2091617;28;20335;-56
2022/03/22 03:57:21;;;;;;;;;;;;;;;16.44;55.10;100299.66;2094866;28;20052;-56
2022/03/22 03:58:23;;;;;;;1.70;1.05;;;;;;;16.49;54.92;100304.53;2095384;28;19935;-57
2022/03/22 03:59:24;;;;;;;;;;;;;;;16.39;55.13;100301.94;2092973;28;20578;-59
2022/03/22 04:00:26;;;;;;;1.85;1.05;;;;;;;16.46;55.07;100300.31;2086858;28;19931;-52
2022/03/22 04:01:27;;;;;;;2.33;1.00;;;;;;;16.53;55.02;100300.59;2092050;28;20134;-58
2022/03/22 04:02:28;;;;;;;;;;;;;;;16.42;55.15;100300.78;2093494;28;20044;-58
2022/03/22 04:03:30;;;;;;;3.60;1.63;;;;;;;16.46;55.01;100308.34;2093448;28;19934;-59
2022/03/22 04:04:31;;;;;;;;;;;;;;;16.38;55.39;100305.59;2095409;28;20450;-55
2022/03/22 04:05:33;;;;;;;0.95;0.88;;;;;;;16.46;54.96;100303.00;2093141;28;19935;-54
2022/03/22 04:06:34;;;;;;;1.50;1.08;;;;;;;16.47;54.81;100304.72;2091938;28;20300;-52
2022/03/22 04:07:35;;;;;;;;;;;;;;;16.37;55.03;100306.56;2091446;28;20056;-55
2022/03/22 04:08:36;;;;;;;1.35;1.08;;;;;;;16.43;54.89;100307.81;2089785;28;19955;-57
2022/03/22 04:09:39;;;;;;;;;;;;;;;16.36;55.07;100306.75;2094182;28;20562;-58
2022/03/22 04:10:39;;;;;;;1.77;1.05;;;;;;;16.43;55.12;100299.78;2091386;28;19924;-57
2022/03/22 04:11:41;;;;;;;;;;;;;;;16.35;55.03;100311.22;2094425;28;20044;-56
2022/03/22 04:12:44;;;;;;;;;;;;;;;16.30;55.69;100303.66;2092625;28;20538;-56
2022/03/22 04:13:46;;;;;;;2.22;1.33;;;;;;;16.40;55.15;100308.13;2089277;28;19924;-56
2022/03/22 04:14:48;;;;;;;1.75;1.20;;;;;;;16.45;54.88;100305.84;2092466;28;20064;-59
2022/03/22 04:15:52;;;;;;;1.25;0.93;;;;;;;16.46;54.77;100303.00;2093781;28;20061;-56
2022/03/22 04:16:53;;;;;;;1.23;1.13;;;;;;;16.45;54.70;100305.84;2093995;28;20055;-53
2022/03/22 04:17:57;;;;;;;;;;;;;;;16.35;55.17;100302.38;2089459;28;21203;-59
2022/03/22 04:18:58;;;;;;;1.10;1.00;;;;;;;16.37;55.01;100309.25;2086184;28;20814;-58
2022/03/22 04:19:59;;;;;;;;;;;;;;;16.29;55.41;100304.63;2090369;28;20059;-53
2022/03/22 04:21:00;;;;;;;;;;;;;;;16.25;55.48;100308.63;2094749;28;19924;-58
2022/03/22 04:22:02;;;;;;;1.77;1.02;;;;;;;16.32;55.28;100306.19;2090954;28;20478;-55
2022/03/22 04:23:03;;;;;;;1.20;1.10;;;;;;;16.38;55.00;100304.75;2093236;28;20052;-56
2022/03/22 04:24:05;;;;;;;;;;;;;;;16.28;55.25;100308.31;2092563;28;20048;-58
2022/03/22 04:25:07;;;;;;;1.63;1.23;;;;;;;16.34;55.23;100308.72;2091101;28;20494;-54
2022/03/22 04:26:09;;;;;;;1.73;1.50;;;;;;;16.35;54.80;100300.53;2091591;28;20105;-58
2022/03/22 04:32:44;;;;;;;2.33;1.40;;;;;;;16.37;55.13;100311.94;2093517;28;20044;-58
2022/03/22 04:33:45;;;;;;;2.10;1.50;;;;;;;16.39;55.02;100309.13;2090622;28;20048;-55
2022/03/22 04:34:47;;;;;;;;;;;;;;;16.26;55.41;100310.28;2087757;28;20128;-58
2022/03/22 04:35:50;;;;;;;1.50;1.33;;;;;;;16.31;55.13;100308.03;2081569;28;19977;-54
2022/03/22 04:36:57;;;;;;;1.35;1.25;;;;;;;16.35;54.92;100313.06;2088304;28;20053;-53
2022/03/22 04:37:58;;;;;;;1.90;1.42;;;;;;;16.33;54.83;100307.88;2088807;28;20086;-55
2022/03/22 04:39:00;;;;;;;;;;;;;;;16.23;55.10;100312.44;2090944;28;20127;-55
2022/03/22 04:40:01;;;;;;;1.88;1.00;;;;;;;16.27;55.18;100313.84;2091713;28;19925;-53
2022/03/22 04:41:02;;;;;;;;;;;;;;;16.18;55.33;100310.19;2091692;28;20691;-54
2022/03/22 04:42:04;;;;;;;2.33;1.70;;;;;;;16.24;55.33;100312.28;2090796;28;19967;-59
2022/03/22 04:43:06;;;;;;;1.77;1.35;;;;;;;16.29;55.04;100315.34;2091080;28;20082;-53
2022/03/22 04:44:08;;;;;;;1.17;1.10;;;;;;;16.34;54.88;100314.06;2092810;28;20392;-57
2022/03/22 04:45:11;;;;;;;2.10;1.30;;;;;;;16.33;54.91;100317.75;2090465;28;20040;-57
2022/03/22 04:46:18;;;;;;;2.35;1.20;;;;;;;16.33;54.82;100313.25;2079609;28;20044;-59
2022/03/22 04:47:20;;;;;;;2.13;1.10;;;;;;;16.33;54.90;100315.06;2086542;28;20106;-53
2022/03/22 04:48:20;;;;;;;2.03;1.48;;;;;;;16.31;54.69;100318.72;2092146;28;20063;-56
2022/03/22 04:49:22;;;;;;;;;;;;;;;16.22;55.17;100314.25;2085890;28;20048;-58
2022/03/22 04:50:24;;;;;;;1.15;0.90;;;;;;;16.25;55.38;100313.97;2090990;28;20818;-59
2022/03/22 04:56:47;;;;;;;1.90;1.08;;;;;;;16.25;54.97;100321.16;2091092;28;20726;-58
2022/03/22 04:57:47;;;;;;;2.22;1.10;;;;;;;16.28;54.83;100327.06;2091104;28;20048;-58
2022/03/22 04:58:51;;;;;;;;;;;;;;;16.18;55.14;100326.25;2089227;28;20109;-56
2022/03/22 04:59:54;;;;;;;1.20;1.10;;;;;;;16.22;55.19;100326.81;2089395;28;19950;-55
2022/03/22 05:00:55;;;;;;;3.25;1.38;;;;;;;16.22;54.91;100330.31;2087605;28;20052;-55
2022/03/22 05:01:57;;;;;;;1.25;1.08;;;;;;;16.24;54.75;100335.53;2087619;28;20057;-57
2022/03/22 05:02:59;;;;;;;1.90;1.35;;;;;;;16.24;54.68;100323.00;2091798;28;20040;-56
2022/03/22 05:04:00;;;;;;;2.67;1.65;;;;;;;16.27;54.86;100321.88;2090390;28;20604;-54
2022/03/22 05:05:02;;;;;;;;;;;;;;;16.18;55.00;100336.94;2087133;28;20056;-53
2022/03/22 05:07:23;;;;;;;2.53;1.02;;;;;;;16.25;54.90;100326.53;2083988;28;20863;-57
2022/03/22 05:08:24;;;;;;;1.20;1.10;;;;;;;16.31;54.65;100331.28;2094204;28;20571;-53
2022/03/22 05:09:26;;;;;;;;;;;;;;;16.26;54.78;100326.34;2088172;28;20044;-55
2022/03/22 05:10:26;;;;;;;;;;;;;;;16.23;54.90;100331.16;2093873;28;19928;-58
2022/03/22 05:11:28;;;;;;;1.00;1.00;;;;;;;16.35;54.79;100326.47;2092635;28;19928;-54
2022/03/22 05:12:30;;;;;;;1.85;1.25;;;;;;;16.45;54.57;100332.63;2091531;28;20294;-59
2022/03/22 05:13:31;;;;;;;1.30;0.98;;;;;;;16.49;54.53;100334.00;2092877;28;20040;-53
2022/03/22 05:14:34;;;;;;;;;;;;;;;16.45;54.60;100336.13;2090535;28;20131;-52
2022/03/22 05:15:36;;;;;;;1.15;1.00;;;;;;;16.53;54.50;100330.88;2092694;28;19928;-50
2022/03/22 05:16:39;;;;;;;1.15;1.05;;;;;;;16.60;54.54;100339.16;2090295;28;20048;-52
2022/03/22 05:17:40;;;;;;;1.20;0.90;;;;;;;16.65;54.42;100334.19;2087263;28;20057;-56
2022/03/22 05:18:42;;;;;;;0.88;0.85;;;;;;;16.70;54.63;100337.28;2092231;28;20056;-51
2022/03/22 05:19:44;;;;;;;1.30;1.10;;;;;;;16.75;54.24;100340.34;2091211;28;20044;-53
2022/03/22 05:20:46;;;;;;;2.50;1.33;;;;;;;16.80;54.24;100336.41;2091368;28;20350;-51
2022/03/22 05:21:46;;;;;;;1.88;1.20;;;;;;;16.84;54.24;100338.66;2083744;28;20040;-54